Cloverdale, Michigan
Current Conditions -  °F | °C
As of 4:53 PM on Sunday 21 Dec 2014 (Local Time) from KBTL Reporting Station
Few Clouds Few Clouds  
Wind Chill: -2°   Ceiling: Unl
Heat Index:   Visibility: 8mi
Dew Point: -4°   Wind: 6mph
Humidity: 70%   Direction: 150°SSE
Pressure: 30.16"   Gusts: NA
Location:  42.56°N, 85.43°W
Report Text: KBTL 212153Z 15005KT 8SM FEW050 01/M04 A3016 RMK AO2 SLP223 T00061044
Loading
Personal Weather Stations






























Interactive Weather Map New forecast layout! Learn more

10-Day Weather Forecast

Advertisements
Track Severe Weather on mobile